Time;durP1;ratioP1;P1;durP2;ratioP2;P2;SDS_P1;SDS_P2;PMS_P1;PMS_P2;Temp;Humidity;BMP_temperature;BMP_pressure;BME280_temperature;BME280_humidity;BME280_pressure;Samples;Min_cycle;Max_cycle;Signal;HPM_P1;HPM_P2
2022/02/06 00:00:50;;;;;;;233.63;142.95;;;128.00;2252.80;;;;;;4923241;29;20468;-82
2022/02/06 00:03:16;;;;;;;207.75;132.00;;;128.30;2252.80;;;;;;4940177;29;20028;-84
2022/02/06 00:05:43;;;;;;;227.45;140.57;;;128.20;2252.80;;;;;;4923453;29;20392;-82
2022/02/06 00:08:11;;;;;;;253.73;162.10;;;128.10;2252.80;;;;;;4923263;29;20036;-82
2022/02/06 00:10:38;;;;;;;262.85;165.70;;;128.10;2252.80;;;;;;4923335;29;20039;-83
2022/02/06 00:13:05;;;;;;;248.90;161.73;;;128.30;2252.80;;;;;;4923388;29;20035;-81
2022/02/06 00:15:31;;;;;;;261.73;162.50;;;128.30;2252.80;;;;;;4923030;29;20028;-81
2022/02/06 00:17:57;;;;;;;291.98;175.40;;;128.10;2252.80;;;;;;4940146;29;20038;-83
2022/02/06 00:20:29;;;;;;;301.02;187.35;;;128.10;2252.80;;;;;;4923152;29;20122;-82
2022/02/06 00:22:58;;;;;;;389.08;230.27;;;128.20;2252.80;;;;;;4922704;29;20106;-81
2022/02/06 00:25:43;;;;;;;372.35;222.32;;;128.20;2252.80;;;;;;4923138;29;20028;-78
2022/02/06 00:28:20;;;;;;;395.30;232.60;;;128.20;2252.80;;;;;;4940750;29;20028;-76
2022/02/06 00:34:27;;;;;;;240.35;146.15;;;128.20;2252.80;;;;;;4960036;29;20059;-77
2022/02/06 00:39:14;;;;;;;251.77;152.63;;;128.10;2252.80;;;;;;4940296;29;20034;-80
2022/02/06 00:41:41;;;;;;;243.23;154.63;;;128.50;2252.80;;;;;;4923151;29;20019;-81
2022/02/06 00:44:21;;;;;;;227.77;144.23;;;128.00;2252.80;;;;;;4922494;29;20024;-80
2022/02/06 00:46:47;;;;;;;201.88;123.32;;;128.00;2252.80;;;;;;4922996;29;20028;-81
2022/02/06 00:49:16;;;;;;;152.05;90.10;;;128.00;2252.80;;;;;;4922762;29;20030;-80
2022/02/06 00:54:16;;;;;;;101.88;63.10;;;128.00;2252.80;;;;;;4939756;29;20380;-82
2022/02/06 00:56:42;;;;;;;80.38;50.55;;;128.10;2252.80;;;;;;4922448;29;20101;-81
2022/02/06 00:59:08;;;;;;;74.90;50.75;;;128.00;2252.80;;;;;;4922293;29;20024;-80
2022/02/06 01:01:36;;;;;;;70.35;44.80;;;128.00;2252.80;;;;;;4922319;29;20035;-81
2022/02/06 01:04:03;;;;;;;72.57;49.17;;;128.00;2252.80;;;;;;4921940;29;20384;-81
2022/02/06 01:06:29;;;;;;;129.35;78.95;;;128.00;2252.80;;;;;;4922275;29;20102;-81
2022/02/06 01:08:55;;;;;;;231.50;145.55;;;128.00;2252.80;;;;;;4922103;29;20118;-81
2022/02/06 01:11:21;;;;;;;235.75;150.13;;;103.20;2227.20;;;;;;4922141;29;20183;-83
2022/02/06 01:13:57;;;;;;;392.33;196.20;;;103.10;2227.20;;;;;;4922066;29;20159;-83
2022/02/06 01:16:30;;;;;;;333.33;178.13;;;103.10;2227.20;;;;;;4922062;29;20043;-84
2022/02/06 01:19:07;;;;;;;321.52;180.18;;;103.00;2227.20;;;;;;4921843;29;20034;-84
2022/02/06 01:24:11;;;;;;;334.15;160.65;;;102.90;2227.20;;;;;;4939103;29;20476;-81
2022/02/06 01:26:46;;;;;;;282.77;157.38;;;102.90;2227.20;;;;;;4921715;29;20031;-83
2022/02/06 01:32:08;;;;;;;278.30;167.35;;;102.80;2227.20;;;;;;4938831;29;20059;-83
2022/02/06 01:34:42;;;;;;;274.10;159.25;;;102.70;2227.20;;;;;;4921800;29;20031;-82
2022/02/06 01:40:18;;;;;;;271.70;153.18;;;102.60;2227.20;;;;;;4879792;29;20065;-82
2022/02/06 01:42:57;;;;;;;202.90;118.40;;;102.70;2227.20;;;;;;4912838;29;20103;-83
2022/02/06 01:45:40;;;;;;;144.23;87.63;;;102.60;2227.20;;;;;;4921795;29;20032;-82
2022/02/06 02:02:16;;;;;;;139.68;83.07;;;77.60;2227.20;;;;;;4938158;29;20054;-83
2022/02/06 02:26:28;;;;;;;137.40;83.85;;;77.40;2227.20;;;;;;4937911;29;20452;-84
2022/02/06 02:45:20;;;;;;;269.55;153.20;;;77.00;1971.20;;;;;;4937693;29;20090;-83
2022/02/06 02:47:52;;;;;;;241.52;129.23;;;77.00;2227.20;;;;;;4920181;29;20055;-82
2022/02/06 02:50:22;;;;;;;189.80;111.30;;;77.10;2227.20;;;;;;4920223;29;20400;-84
2022/02/06 03:03:25;;;;;;;187.27;105.88;;;76.90;2227.20;;;;;;4909644;29;20086;-82
2022/02/06 03:09:16;;;;;;;246.35;139.07;;;76.80;2227.20;;;;;;4936652;29;20038;-84
2022/02/06 03:11:47;;;;;;;248.93;138.82;;;76.80;2227.20;;;;;;4919663;29;20063;-83
2022/02/06 03:14:38;;;;;;;206.25;117.88;;;52.10;2227.20;;;;;;4919864;29;20031;-84
2022/02/06 03:17:32;;;;;;;185.55;112.05;;;52.00;2227.20;;;;;;4919458;29;20040;-86
2022/02/06 03:20:09;;;;;;;176.73;105.22;;;52.10;2227.20;;;;;;4920277;29;20114;-84
2022/02/06 03:22:50;;;;;;;188.90;113.22;;;52.10;2227.20;;;;;;4914692;29;20063;-85
2022/02/06 03:25:54;;;;;;;198.85;116.00;;;52.10;2227.20;;;;;;4920039;29;20063;-84
2022/02/06 03:28:30;;;;;;;;;;;52.10;2227.20;;;;;;4920089;29;20175;-85
2022/02/06 03:30:56;;;;;;;162.98;91.32;;;52.00;2227.20;;;;;;4919738;29;19911;-84
2022/02/06 03:33:21;;;;;;;171.57;101.05;;;52.00;2227.20;;;;;;4920125;29;20023;-85
2022/02/06 03:35:48;;;;;;;159.85;101.72;;;52.00;2227.20;;;;;;4919973;29;20535;-86
2022/02/06 03:38:14;;;;;;;154.68;95.88;;;51.90;2227.20;;;;;;4919923;29;20023;-86
2022/02/06 03:40:48;;;;;;;138.93;89.65;;;51.90;2227.20;;;;;;4920087;29;20050;-85
2022/02/06 03:43:27;;;;;;;132.00;82.63;;;51.90;2227.20;;;;;;4919996;29;20031;-84
2022/02/06 03:50:16;;;;;;;192.07;119.97;;;52.00;2227.20;;;;;;4859403;29;20037;-85
2022/02/06 03:53:17;;;;;;;;;;;;;;;;;;;;;
2022/02/06 03:55:46;;;;;;;194.55;117.10;;;51.70;2227.20;;;;;;4932995;29;20032;-86
2022/02/06 04:01:31;;;;;;;221.57;127.32;;;51.80;2227.20;;;;;;4936715;29;20102;-84
2022/02/06 04:04:03;;;;;;;193.65;112.40;;;51.60;1945.60;;;;;;4919659;29;20139;-84
2022/02/06 04:06:32;;;;;;;180.95;101.00;;;51.70;2227.20;;;;;;4919130;29;20030;-84
2022/02/06 04:09:34;;;;;;;171.52;103.53;;;51.70;2227.20;;;;;;4919315;29;20032;-84
2022/02/06 04:12:49;;;;;;;134.88;81.75;;;51.70;2227.20;;;;;;4908822;29;20165;-84
2022/02/06 04:29:09;;;;;;;115.70;69.57;;;51.50;2227.20;;;;;;4835365;29;20052;-85
2022/02/06 04:31:38;;;;;;;78.97;51.17;;;51.50;2227.20;;;;;;4847749;29;20033;-84
2022/02/06 04:34:05;;;;;;;88.25;53.47;;;51.50;2227.20;;;;;;4922715;29;20027;-84
2022/02/06 04:36:38;;;;;;;112.28;67.40;;;51.50;2227.20;;;;;;4922903;29;20043;-83
2022/02/06 04:41:49;;;;;;;124.97;76.40;;;51.30;2227.20;;;;;;4939684;29;20051;-84
2022/02/06 04:52:16;;;;;;;;;;;;;;;;;;;;;
2022/02/06 05:48:51;;;;;;;;;;;;;;;;;;;;;
2022/02/06 05:51:52;;;;;;;137.30;85.15;;;26.00;2201.60;;;;;;4919136;29;20016;-86
2022/02/06 05:54:50;;;;;;;155.32;94.15;;;26.10;2099.20;;;;;;4902595;29;20040;-86
2022/02/06 05:57:36;;;;;;;109.47;68.75;;;25.80;2201.60;;;;;;4902586;29;20028;-87
2022/02/06 06:00:37;;;;;;;109.22;69.63;;;26.20;2201.60;;;;;;4901504;29;20059;-87
2022/02/06 06:27:27;;;;;;;93.72;56.95;;;26.00;2201.60;;;;;;4919154;29;20068;-87
2022/02/06 06:30:47;;;;;;;105.10;68.00;;;26.00;2201.60;;;;;;4895589;29;20039;-86
2022/02/06 06:33:27;;;;;;;115.78;71.40;;;26.10;2201.60;;;;;;4881672;29;20134;-87
2022/02/06 06:36:04;;;;;;;112.97;69.82;;;26.10;2201.60;;;;;;4901740;29;20032;-86
2022/02/06 06:39:06;;;;;;;112.78;73.93;;;26.20;2201.60;;;;;;4908333;29;20048;-86
2022/02/06 06:42:14;;;;;;;107.50;72.13;;;26.30;2201.60;;;;;;4936644;29;20511;-86
2022/02/06 06:45:22;;;;;;;123.80;78.32;;;26.50;2201.60;;;;;;4920743;29;20032;-84
2022/02/06 06:48:09;;;;;;;127.82;83.55;;;51.20;2227.20;;;;;;4897124;29;20040;-87
2022/02/06 06:50:50;;;;;;;148.32;95.90;;;51.20;2227.20;;;;;;4882194;29;20035;-84
2022/02/06 06:57:31;;;;;;;221.80;136.35;;;51.30;2227.20;;;;;;4793612;29;20045;-85
2022/02/06 07:00:38;;;;;;;240.43;142.32;;;51.40;2227.20;;;;;;4790214;29;20043;-86
2022/02/06 07:03:10;;;;;;;225.70;137.13;;;51.50;2227.20;;;;;;4890579;29;20040;-85
2022/02/06 07:13:14;;;;;;;191.18;121.93;;;51.40;2227.20;;;;;;4860353;29;20565;-85
2022/02/06 07:15:43;;;;;;;202.88;127.15;;;51.40;2227.20;;;;;;4796564;29;20041;-86
2022/02/06 07:18:28;;;;;;;201.90;127.13;;;51.80;2227.20;;;;;;4890691;29;20048;-87
2022/02/06 07:21:05;;;;;;;180.30;113.47;;;51.50;2227.20;;;;;;4919933;29;20048;-86
2022/02/06 07:23:57;;;;;;;129.55;86.18;;;51.50;2227.20;;;;;;4919952;29;20468;-84
2022/02/06 07:26:23;;;;;;;94.10;62.20;;;51.50;2227.20;;;;;;4919557;29;20063;-87
2022/02/06 07:28:50;;;;;;;83.25;57.85;;;51.60;2227.20;;;;;;4919946;29;20103;-85
2022/02/06 07:31:22;;;;;;;80.47;59.78;;;51.60;2227.20;;;;;;4919749;29;20035;-86
2022/02/06 07:34:19;;;;;;;96.20;66.25;;;51.70;2227.20;;;;;;4920098;29;20103;-85
2022/02/06 07:37:14;;;;;;;91.88;63.75;;;51.80;2227.20;;;;;;4919347;29;20479;-86
2022/02/06 07:39:40;;;;;;;108.75;70.05;;;51.90;2227.20;;;;;;4919756;29;20094;-84
2022/02/06 07:42:09;;;;;;;94.63;64.68;;;52.00;2227.20;;;;;;4920113;29;20024;-85
2022/02/06 07:48:05;;;;;;;68.72;48.15;;;76.80;2227.20;;;;;;4912241;29;20043;-82
2022/02/06 07:50:31;;;;;;;66.72;43.72;;;76.80;2227.20;;;;;;4919855;29;20127;-84
2022/02/06 07:52:57;;;;;;;68.25;47.28;;;76.80;2227.20;;;;;;4920152;29;20469;-86
2022/02/06 07:55:23;;;;;;;71.97;50.00;;;76.90;2227.20;;;;;;4919870;29;20042;-83
2022/02/06 07:57:49;;;;;;;68.15;47.47;;;76.90;2227.20;;;;;;4919432;29;20027;-85
2022/02/06 08:00:21;;;;;;;76.40;48.17;;;77.00;2227.20;;;;;;4926686;29;20031;-85
2022/02/06 08:02:47;;;;;;;76.72;53.58;;;77.10;2227.20;;;;;;4938409;28;20027;-87
2022/02/06 08:05:21;;;;;;;86.75;57.53;;;77.20;2227.20;;;;;;4940431;29;20118;-87
2022/02/06 08:08:00;;;;;;;77.13;53.28;;;77.20;2227.20;;;;;;4942017;29;20039;-88
2022/02/06 08:10:29;;;;;;;63.00;42.13;;;77.30;2227.20;;;;;;4941158;29;20039;-88
2022/02/06 08:13:07;;;;;;;70.03;45.65;;;77.10;2227.20;;;;;;4941953;29;20035;-85
2022/02/06 08:15:32;;;;;;;82.20;56.97;;;77.20;2227.20;;;;;;4941231;29;20031;-86
2022/02/06 08:18:01;;;;;;;94.85;64.45;;;77.40;2227.20;;;;;;4941176;29;20035;-86
2022/02/06 08:20:38;;;;;;;71.78;48.83;;;77.40;2227.20;;;;;;4941708;29;20116;-84
2022/02/06 08:30:00;;;;;;;72.97;46.17;;;77.60;2227.20;;;;;;4880360;29;20486;-85
2022/02/06 08:32:53;;;;;;;79.60;49.35;;;77.70;2227.20;;;;;;4864034;29;20486;-85
2022/02/06 08:35:19;;;;;;;71.43;45.13;;;102.50;2227.20;;;;;;4838140;29;20036;-81
2022/02/06 08:37:45;;;;;;;72.10;48.38;;;102.60;2227.20;;;;;;4908706;29;20035;-79
2022/02/06 08:40:16;;;;;;;72.90;47.92;;;102.70;2227.20;;;;;;4957858;29;20039;-82
2022/02/06 08:42:43;;;;;;;60.47;43.08;;;102.80;2227.20;;;;;;4923304;29;20046;-79
2022/02/06 08:45:11;;;;;;;66.45;43.67;;;102.80;2227.20;;;;;;4926984;29;20032;-81
2022/02/06 08:47:39;;;;;;;48.03;34.42;;;102.90;2227.20;;;;;;4921087;29;20392;-81
2022/02/06 08:50:05;;;;;;;53.45;32.92;;;103.00;2227.20;;;;;;4921190;29;20035;-80
2022/02/06 08:52:31;;;;;;;48.78;32.00;;;103.10;2227.20;;;;;;4921064;29;20118;-77
2022/02/06 08:54:57;;;;;;;66.97;43.80;;;103.20;2227.20;;;;;;4928172;29;20135;-79
2022/02/06 08:57:26;;;;;;;65.18;46.65;;;103.20;2227.20;;;;;;4941488;29;20434;-84
2022/02/06 08:59:56;;;;;;;79.10;51.13;;;103.30;2227.20;;;;;;4941408;29;20403;-83
2022/02/06 09:02:22;;;;;;;67.18;43.13;;;128.00;2252.80;;;;;;4941511;29;20038;-85
2022/02/06 09:04:49;;;;;;;42.10;30.80;;;128.00;2252.80;;;;;;4941402;29;20033;-87
2022/02/06 09:07:19;;;;;;;54.80;37.63;;;128.20;2252.80;;;;;;4941044;29;20121;-85
2022/02/06 09:09:50;;;;;;;50.95;38.00;;;128.20;2252.80;;;;;;4940171;29;20046;-79
2022/02/06 09:12:17;;;;;;;51.30;34.70;;;128.30;2252.80;;;;;;4941414;29;20114;-81
2022/02/06 09:14:48;;;;;;;51.88;35.25;;;128.40;2252.80;;;;;;4940413;29;20035;-84
2022/02/06 09:17:13;;;;;;;44.10;31.15;;;128.50;2252.80;;;;;;4941436;29;20119;-85
2022/02/06 09:19:39;;;;;;;39.72;27.85;;;128.60;2252.80;;;;;;4941314;29;20488;-84
2022/02/06 09:22:08;;;;;;;52.80;37.40;;;128.80;2252.80;;;;;;4941076;29;20051;-85
2022/02/06 09:24:34;;;;;;;46.88;34.70;;;128.80;2252.80;;;;;;4941054;29;20114;-83
2022/02/06 09:27:02;;;;;;;46.92;34.40;;;128.90;2252.80;;;;;;4957751;29;20034;-83
2022/02/06 09:29:28;;;;;;;75.00;46.80;;;153.60;2252.80;;;;;;4940585;29;20070;-84
2022/02/06 09:31:54;;;;;;;49.60;35.63;;;153.70;2252.80;;;;;;4941195;29;20059;-84
2022/02/06 09:36:48;;;;;;;59.60;42.53;;;153.90;2252.80;;;;;;4958133;29;20019;-85
2022/02/06 09:39:16;;;;;;;58.17;41.47;;;154.00;2252.80;;;;;;4940692;29;20051;-84
2022/02/06 09:41:45;;;;;;;60.28;41.65;;;154.10;2252.80;;;;;;4940901;29;20055;-84
2022/02/06 09:44:15;;;;;;;67.22;46.20;;;154.20;2252.80;;;;;;4940577;29;20027;-85
2022/02/06 09:46:45;;;;;;;67.70;47.67;;;154.30;2252.80;;;;;;4940885;29;20468;-85
2022/02/06 09:49:13;;;;;;;68.05;49.33;;;154.20;2252.80;;;;;;4940478;29;20455;-84
2022/02/06 09:51:42;;;;;;;75.03;52.40;;;154.40;2252.80;;;;;;4940449;29;20031;-86
2022/02/06 09:54:09;;;;;;;70.25;47.50;;;154.50;2252.80;;;;;;4940758;29;20467;-83
2022/02/06 09:56:58;;;;;;;162.68;97.97;;;179.30;2252.80;;;;;;4957601;29;20047;-84
2022/02/06 09:59:25;;;;;;;93.18;56.88;;;205.40;2252.80;;;;;;4940684;29;20546;-80
2022/02/06 10:01:56;;;;;;;62.88;43.08;;;179.40;2252.80;;;;;;4940179;29;20364;-77
2022/02/06 10:04:26;;;;;;;82.80;56.95;;;179.60;2252.80;;;;;;4956671;29;20035;-77
2022/02/06 10:07:14;;;;;;;68.78;48.90;;;179.70;2252.80;;;;;;4940048;29;20070;-81
2022/02/06 10:10:00;;;;;;;81.78;59.05;;;179.50;2252.80;;;;;;4939490;29;20035;-79
2022/02/06 10:12:30;;;;;;;142.13;98.78;;;179.60;2252.80;;;;;;4940040;29;20031;-77
2022/02/06 10:14:56;;;;;;;110.22;73.90;;;179.80;2252.80;;;;;;4957222;29;20024;-77
2022/02/06 10:17:24;;;;;;;65.35;42.83;;;180.00;2252.80;;;;;;4939622;29;20086;-80
2022/02/06 10:19:52;;;;;;;24.10;18.23;;;204.80;2252.80;;;;;;4957098;29;20031;-81
2022/02/06 10:22:42;;;;;;;48.50;34.95;;;204.90;2252.80;;;;;;4939846;29;20031;-83
2022/02/06 10:25:10;;;;;;;78.88;51.28;;;204.90;2252.80;;;;;;4939726;29;20487;-80
2022/02/06 10:27:58;;;;;;;54.67;39.00;;;180.10;2252.80;;;;;;4938815;29;20538;-81
2022/02/06 10:30:44;;;;;;;114.07;77.90;;;204.80;2252.80;;;;;;4939573;29;20521;-83
2022/02/06 10:33:21;;;;;;;61.33;43.97;;;205.00;2252.80;;;;;;4939534;29;20024;-83
2022/02/06 10:35:55;;;;;;;87.32;54.20;;;205.20;2252.80;;;;;;4939690;29;20023;-83
2022/02/06 10:38:41;;;;;;;63.50;42.88;;;205.40;2252.80;;;;;;4938903;29;20091;-83
2022/02/06 10:41:06;;;;;;;66.43;44.70;;;205.50;2252.80;;;;;;4938058;29;20466;-78
2022/02/06 10:43:34;;;;;;;58.70;39.72;;;205.70;2252.80;;;;;;4938881;29;20031;-79
2022/02/06 10:46:12;;;;;;;64.38;44.83;;;205.70;2252.80;;;;;;4938563;29;20050;-83
2022/02/06 10:48:47;;;;;;;51.88;33.83;;;230.40;2252.80;;;;;;4939112;29;20023;-80
2022/02/06 10:51:37;;;;;;;36.90;27.17;;;230.50;2252.80;;;;;;4938831;29;20050;-83
2022/02/06 10:54:09;;;;;;;43.13;31.17;;;230.60;2252.80;;;;;;4939048;29;20035;-79
2022/02/06 10:56:36;;;;;;;40.40;27.05;;;230.60;2252.80;;;;;;4938917;29;20035;-79
2022/02/06 10:59:06;;;;;;;41.65;30.08;;;230.70;2252.80;;;;;;4938378;29;20042;-78
2022/02/06 11:01:37;;;;;;;36.92;28.00;;;230.70;2252.80;;;;;;4938950;29;20114;-81
2022/02/06 11:04:29;;;;;;;41.10;31.30;;;230.70;2252.80;;;;;;4938841;29;20527;-79
2022/02/06 11:07:12;;;;;;;39.72;30.15;;;230.90;2252.80;;;;;;4938497;29;20443;-78
2022/02/06 11:09:39;;;;;;;35.05;25.40;;;231.20;2252.80;;;;;;4938671;29;20118;-78
2022/02/06 11:12:15;;;;;;;53.85;36.38;;;256.00;2252.80;;;;;;4938660;29;20031;-79
2022/02/06 11:14:48;;;;;;;44.45;31.58;;;231.30;2252.80;;;;;;4938296;29;20027;-79
2022/02/06 11:17:19;;;;;;;49.33;33.67;;;231.30;2252.80;;;;;;4938802;29;20027;-79
2022/02/06 11:20:08;;;;;;;35.47;26.42;;;231.30;2252.80;;;;;;4937872;29;20035;-79
2022/02/06 11:22:35;;;;;;;34.92;25.65;;;256.00;2252.80;;;;;;4938699;29;20027;-78
2022/02/06 11:25:07;;;;;;;34.53;23.55;;;256.20;2252.80;;;;;;4938599;29;20058;-79
2022/02/06 11:27:36;;;;;;;30.60;22.17;;;256.40;2252.80;;;;;;4938150;29;20030;-79
2022/02/06 11:30:03;;;;;;;70.97;50.05;;;256.50;2252.80;;;;;;4938467;29;20032;-78
2022/02/06 11:32:29;;;;;;;36.53;25.38;;;256.50;2252.80;;;;;;4938448;29;20118;-78
2022/02/06 11:35:18;;;;;;;41.38;28.48;;;256.70;2252.80;;;;;;4937624;29;20019;-78
2022/02/06 11:44:35;;;;;;;43.60;32.05;;;282.10;2278.40;;;;;;4954801;29;20391;-77
2022/02/06 11:47:21;;;;;;;32.70;26.13;;;307.20;2201.60;;;;;;4925593;29;20505;-77
2022/02/06 11:49:49;;;;;;;40.92;35.55;;;307.60;2099.20;;;;;;4937706;29;20035;-78
2022/02/06 11:52:15;;;;;;;20.08;14.05;;;307.80;2073.60;;;;;;4938238;29;20028;-77
2022/02/06 11:54:47;;;;;;;25.27;17.33;;;308.10;1971.20;;;;;;4937869;29;20023;-77
2022/02/06 12:00:06;;;;;;;23.67;15.85;;;333.30;1920.00;;;;;;4955499;29;20035;-78
2022/02/06 12:02:34;;;;;;;24.48;15.88;;;333.50;1894.40;;;;;;4937939;29;20032;-78
2022/02/06 12:05:09;;;;;;;26.70;17.15;;;333.60;1868.80;;;;;;4955369;29;20027;-77
2022/02/06 12:08:10;;;;;;;33.60;18.67;;;358.40;1843.20;;;;;;4955350;29;20059;-77
2022/02/06 12:10:36;;;;;;;24.83;14.13;;;358.70;1843.20;;;;;;4945227;29;20054;-77
2022/02/06 12:13:22;;;;;;;19.48;11.85;;;358.90;1792.00;;;;;;4938165;29;20035;-77
2022/02/06 12:15:49;;;;;;;20.77;12.55;;;359.00;1766.40;;;;;;4937956;29;20023;-77
2022/02/06 12:18:23;;;;;;;20.52;14.07;;;384.10;1740.80;;;;;;4924641;29;20494;-78
2022/02/06 12:20:51;;;;;;;22.90;15.40;;;359.20;1715.20;;;;;;4918211;29;20416;-74
2022/02/06 12:24:04;;;;;;;25.45;17.83;;;359.30;1689.60;;;;;;4917839;29;20450;-74
2022/02/06 12:26:30;;;;;;;;;;;384.00;1664.00;;;;;;4888757;29;20039;-75
2022/02/06 12:29:04;;;;;;;20.15;11.98;;;384.20;1638.40;;;;;;4918068;29;20247;-74
2022/02/06 12:31:34;;;;;;;14.20;8.48;;;384.30;1612.80;;;;;;4917832;29;20042;-75
2022/02/06 12:39:26;;;;;;;15.65;10.73;;;384.40;1587.20;;;;;;4934664;29;20066;-77
2022/02/06 12:41:55;;;;;;;15.88;10.90;;;384.70;1561.60;;;;;;4935224;29;20028;-79
2022/02/06 12:44:24;;;;;;;18.55;12.60;;;384.80;1536.00;;;;;;4935037;29;20439;-75
2022/02/06 12:46:50;;;;;;;18.05;11.77;;;384.90;1484.80;;;;;;4917698;29;20551;-76
2022/02/06 12:49:21;;;;;;;16.50;10.48;;;384.90;1536.00;;;;;;4916073;29;20031;-77
2022/02/06 12:51:55;;;;;;;17.80;12.23;;;409.70;1587.20;;;;;;4920641;29;20042;-78
2022/02/06 12:54:22;;;;;;;17.80;13.02;;;409.70;1536.00;;;;;;4921309;29;20027;-74
2022/02/06 12:56:48;;;;;;;21.75;13.10;;;384.30;1536.00;;;;;;4920818;29;20031;-73
2022/02/06 12:59:20;;;;;;;21.58;13.30;;;409.90;1536.00;;;;;;4938043;29;20023;-76
2022/02/06 13:01:47;;;;;;;;;;;410.00;1561.60;;;;;;4923287;29;20036;-75
2022/02/06 13:04:19;;;;;;;16.95;11.15;;;410.00;1536.00;;;;;;4937047;29;19906;-76
2022/02/06 13:06:46;;;;;;;17.88;10.80;;;410.00;1536.00;;;;;;4935849;29;20121;-76
2022/02/06 13:09:25;;;;;;;22.75;14.85;;;410.10;1484.80;;;;;;4930002;29;20537;-75
2022/02/06 13:12:42;;;;;;;22.02;17.15;;;410.20;1510.40;;;;;;4956062;29;20078;-76
2022/02/06 13:17:41;;;;;;;22.65;12.43;;;410.50;1510.40;;;;;;4956807;29;20082;-75
2022/02/06 13:23:10;;;;;;;22.73;13.52;;;410.50;1510.40;;;;;;4937282;29;20038;-76
2022/02/06 13:31:22;;;;;;;45.38;30.20;;;409.90;1510.40;;;;;;4951854;29;20037;-76
2022/02/06 13:34:13;;;;;;;44.60;33.83;;;384.60;1484.80;;;;;;4928328;29;20035;-74
2022/02/06 13:36:46;;;;;;;20.83;13.30;;;384.30;1536.00;;;;;;4920708;29;20087;-77
2022/02/06 13:39:26;;;;;;;18.05;12.73;;;384.00;1561.60;;;;;;4937932;29;20472;-75
2022/02/06 13:41:54;;;;;;;29.42;21.02;;;359.30;1587.20;;;;;;4921071;29;20126;-78
2022/02/06 13:44:23;;;;;;;34.47;18.83;;;384.10;1612.80;;;;;;4938532;29;20595;-78
2022/02/06 13:46:52;;;;;;;35.72;26.55;;;384.40;1612.80;;;;;;4920892;29;20031;-78
2022/02/06 13:49:28;;;;;;;24.48;15.68;;;384.50;1587.20;;;;;;4921241;29;20031;-77
2022/02/06 13:52:05;;;;;;;30.52;19.40;;;384.50;1587.20;;;;;;4938238;29;20507;-76
2022/02/06 13:54:36;;;;;;;26.73;18.63;;;384.90;1587.20;;;;;;4920763;29;20059;-78
2022/02/06 13:57:05;;;;;;;26.13;17.75;;;409.60;1587.20;;;;;;4921012;29;20039;-77
2022/02/06 13:59:35;;;;;;;28.65;21.48;;;409.70;1612.80;;;;;;4937824;29;20087;-75
2022/02/06 14:02:08;;;;;;;23.05;17.27;;;409.90;1612.80;;;;;;4920599;29;20035;-76
2022/02/06 14:04:39;;;;;;;;;;;410.00;1587.20;;;;;;4938449;29;20083;-78
2022/02/06 14:07:18;;;;;;;34.67;24.38;;;410.20;1561.60;;;;;;4920838;29;20278;-77
2022/02/06 14:12:53;;;;;;;22.65;14.20;;;410.00;1587.20;;;;;;4937884;29;20031;-75
2022/02/06 14:15:28;;;;;;;32.05;22.75;;;410.20;1587.20;;;;;;4920430;29;20478;-77
2022/02/06 14:17:56;;;;;;;29.20;22.73;;;410.20;1587.20;;;;;;4920723;29;20134;-77
2022/02/06 14:20:25;;;;;;;40.22;23.00;;;410.20;1587.20;;;;;;4937940;29;20046;-76
2022/02/06 14:22:53;;;;;;;30.70;19.83;;;410.20;1587.20;;;;;;4937412;29;20115;-76
2022/02/06 14:25:35;;;;;;;44.67;32.50;;;410.00;1587.20;;;;;;4920469;29;20035;-76
2022/02/06 14:28:26;;;;;;;56.53;40.07;;;410.00;1587.20;;;;;;4937644;29;20030;-78
2022/02/06 14:30:53;;;;;;;48.72;33.10;;;409.80;1612.80;;;;;;4920143;29;20040;-76
2022/02/06 14:33:27;;;;;;;35.45;25.45;;;384.90;1612.80;;;;;;4937385;29;20027;-78
2022/02/06 14:35:56;;;;;;;46.42;30.15;;;384.40;1664.00;;;;;;4919935;29;20035;-76
2022/02/06 14:38:38;;;;;;;54.85;34.55;;;359.30;1689.60;;;;;;4920114;29;20055;-78
2022/02/06 14:41:21;;;;;;;;;;;358.90;1715.20;;;;;;4920594;29;20112;-77
2022/02/06 14:44:00;;;;;;;46.00;29.67;;;358.40;1740.80;;;;;;4937088;29;19906;-76
2022/02/06 14:46:28;;;;;;;53.85;31.33;;;333.50;1766.40;;;;;;4919828;29;20028;-76
2022/02/06 14:48:54;;;;;;;45.58;32.97;;;333.30;1766.40;;;;;;4936968;29;20492;-75
2022/02/06 14:51:20;;;;;;;88.10;53.97;;;333.20;1792.00;;;;;;4919694;29;20071;-78
2022/02/06 14:53:46;;;;;;;75.18;45.70;;;333.00;1817.60;;;;;;4937095;29;20028;-76
2022/02/06 14:56:13;;;;;;;81.45;65.68;;;332.90;1817.60;;;;;;4936734;29;20407;-77
2022/02/06 14:58:40;;;;;;;70.65;53.25;;;308.10;1792.00;;;;;;4919597;29;20031;-78
2022/02/06 15:01:06;;;;;;;70.82;55.03;;;308.10;1843.20;;;;;;4920006;29;20123;-75
2022/02/06 15:03:32;;;;;;;73.20;56.30;;;308.10;1843.20;;;;;;4919846;29;20440;-75
2022/02/06 15:05:58;;;;;;;72.22;55.20;;;308.10;1843.20;;;;;;4919370;29;20023;-75
2022/02/06 15:08:24;;;;;;;70.03;52.83;;;308.00;1843.20;;;;;;4937159;29;20066;-77
2022/02/06 15:10:51;;;;;;;57.40;41.00;;;307.90;1868.80;;;;;;4936921;29;20091;-76
2022/02/06 15:13:17;;;;;;;64.13;44.20;;;307.80;1920.00;;;;;;4919298;29;20051;-76
2022/02/06 15:15:45;;;;;;;51.83;38.55;;;307.50;1920.00;;;;;;4919381;29;20027;-78
2022/02/06 15:20:55;;;;;;;64.55;45.08;;;307.20;1971.20;;;;;;4936924;29;20051;-75
2022/02/06 15:23:23;;;;;;;59.53;42.78;;;282.50;1971.20;;;;;;4919561;29;20032;-76
2022/02/06 15:25:49;;;;;;;67.95;47.90;;;282.40;1996.80;;;;;;4936674;29;20027;-77
2022/02/06 15:28:15;;;;;;;85.22;58.85;;;282.20;1996.80;;;;;;4936017;29;20078;-76
2022/02/06 15:30:41;;;;;;;99.70;67.00;;;282.00;2022.40;;;;;;4919393;29;20476;-74
2022/02/06 15:33:14;;;;;;;104.35;68.47;;;281.90;2022.40;;;;;;4936531;29;20028;-80
2022/02/06 15:35:43;;;;;;;118.15;76.40;;;281.80;2048.00;;;;;;4919175;29;20059;-80
2022/02/06 15:38:15;;;;;;;133.95;84.03;;;281.60;2073.60;;;;;;4918600;29;20055;-80
2022/02/06 15:40:41;;;;;;;;;;;256.90;2073.60;;;;;;4920076;29;20031;-80
2022/02/06 15:43:08;;;;;;;122.82;82.28;;;256.80;2073.60;;;;;;4919291;29;19907;-79
2022/02/06 15:45:35;;;;;;;144.90;100.55;;;256.70;2073.60;;;;;;4919569;29;20028;-79
2022/02/06 15:48:01;;;;;;;140.23;95.75;;;256.50;2073.60;;;;;;4936281;29;20031;-79
2022/02/06 15:50:27;;;;;;;122.97;81.57;;;256.50;2073.60;;;;;;4929852;29;20113;-78
2022/02/06 15:52:53;;;;;;;133.77;85.35;;;256.40;2099.20;;;;;;4942660;28;20023;-80
2022/02/06 15:55:19;;;;;;;114.45;76.15;;;256.30;2099.20;;;;;;4936448;29;20024;-75
2022/02/06 15:57:45;;;;;;;123.43;81.28;;;256.20;2099.20;;;;;;4931325;29;20051;-76
2022/02/06 16:00:11;;;;;;;113.18;75.95;;;256.20;2099.20;;;;;;4941421;29;20361;-76
2022/02/06 16:02:37;;;;;;;120.80;81.75;;;256.00;2124.80;;;;;;4919231;29;20024;-77
2022/02/06 16:05:04;;;;;;;96.00;66.13;;;231.30;2099.20;;;;;;4935909;29;20032;-76
2022/02/06 16:07:30;;;;;;;110.85;76.18;;;231.20;2124.80;;;;;;4919178;29;20127;-76
2022/02/06 16:09:56;;;;;;;110.68;74.65;;;231.20;2150.40;;;;;;4918958;29;20119;-77
2022/02/06 16:12:22;;;;;;;111.93;76.53;;;231.20;2150.40;;;;;;4935996;29;20460;-76
2022/02/06 16:14:48;;;;;;;137.80;93.55;;;231.10;2176.00;;;;;;4919050;29;20028;-76
2022/02/06 16:17:15;;;;;;;118.20;79.82;;;230.90;2201.60;;;;;;4918693;29;20051;-76
2022/02/06 16:19:41;;;;;;;129.25;84.30;;;230.90;2201.60;;;;;;4936140;29;20028;-77
2022/02/06 16:22:08;;;;;;;245.30;140.55;;;230.80;2201.60;;;;;;4936029;29;20131;-74
2022/02/06 16:24:38;;;;;;;220.82;129.38;;;230.70;2252.80;;;;;;4935687;29;20110;-76
2022/02/06 16:27:05;;;;;;;249.65;141.25;;;230.60;2252.80;;;;;;4922671;29;20054;-76
2022/02/06 16:29:31;;;;;;;246.90;143.25;;;230.50;2252.80;;;;;;4922605;29;20027;-77
2022/02/06 16:31:58;;;;;;;248.63;148.20;;;230.40;2252.80;;;;;;4922246;29;20039;-76
2022/02/06 16:34:23;;;;;;;295.08;177.02;;;205.70;2252.80;;;;;;4939981;29;20035;-76
2022/02/06 16:36:50;;;;;;;216.85;133.82;;;205.60;2252.80;;;;;;4922671;29;20036;-76
2022/02/06 16:39:17;;;;;;;195.02;114.53;;;205.60;2252.80;;;;;;4921677;29;20507;-77